sensor_id;sensor_type;location;lat;lon;timestamp;P1;durP1;ratioP1;P2;durP2;ratioP2
22024;SDS011;11176;51.448;6.650;2023-01-06T00:00:24;9.60;;;3.38;;
22024;SDS011;11176;51.448;6.650;2023-01-06T00:02:50;8.00;;;3.65;;
22024;SDS011;11176;51.448;6.650;2023-01-06T00:05:17;7.82;;;2.83;;
22024;SDS011;11176;51.448;6.650;2023-01-06T00:07:44;5.88;;;3.20;;
22024;SDS011;11176;51.448;6.650;2023-01-06T00:10:14;7.57;;;2.95;;
22024;SDS011;11176;51.448;6.650;2023-01-06T00:12:43;7.65;;;2.95;;
22024;SDS011;11176;51.448;6.650;2023-01-06T00:15:13;7.95;;;2.80;;
22024;SDS011;11176;51.448;6.650;2023-01-06T00:17:41;5.93;;;3.00;;
22024;SDS011;11176;51.448;6.650;2023-01-06T00:20:08;9.82;;;2.72;;
22024;SDS011;11176;51.448;6.650;2023-01-06T00:22:35;7.93;;;2.58;;
22024;SDS011;11176;51.448;6.650;2023-01-06T00:25:04;7.72;;;2.35;;
22024;SDS011;11176;51.448;6.650;2023-01-06T00:27:31;8.90;;;2.60;;
22024;SDS011;11176;51.448;6.650;2023-01-06T00:29:57;6.82;;;2.80;;
22024;SDS011;11176;51.448;6.650;2023-01-06T00:32:24;6.03;;;2.25;;
22024;SDS011;11176;51.448;6.650;2023-01-06T00:34:50;9.45;;;2.85;;
22024;SDS011;11176;51.448;6.650;2023-01-06T00:37:17;7.63;;;2.50;;
22024;SDS011;11176;51.448;6.650;2023-01-06T00:39:43;5.40;;;2.10;;
22024;SDS011;11176;51.448;6.650;2023-01-06T00:42:10;5.85;;;2.08;;
22024;SDS011;11176;51.448;6.650;2023-01-06T00:44:37;5.47;;;1.92;;
22024;SDS011;11176;51.448;6.650;2023-01-06T00:47:06;5.60;;;2.00;;
22024;SDS011;11176;51.448;6.650;2023-01-06T00:49:34;5.90;;;2.35;;
22024;SDS011;11176;51.448;6.650;2023-01-06T00:52:01;7.85;;;2.00;;
22024;SDS011;11176;51.448;6.650;2023-01-06T00:54:28;5.32;;;1.98;;
22024;SDS011;11176;51.448;6.650;2023-01-06T00:56:54;7.32;;;1.98;;
22024;SDS011;11176;51.448;6.650;2023-01-06T00:59:22;8.68;;;2.10;;
22024;SDS011;11176;51.448;6.650;2023-01-06T01:01:52;6.70;;;1.75;;
22024;SDS011;11176;51.448;6.650;2023-01-06T01:04:20;6.38;;;1.85;;
22024;SDS011;11176;51.448;6.650;2023-01-06T01:06:48;3.85;;;1.90;;
22024;SDS011;11176;51.448;6.650;2023-01-06T01:09:20;7.30;;;1.85;;
22024;SDS011;11176;51.448;6.650;2023-01-06T01:11:52;3.28;;;1.50;;
22024;SDS011;11176;51.448;6.650;2023-01-06T01:17:21;5.30;;;1.77;;
22024;SDS011;11176;51.448;6.650;2023-01-06T01:19:50;3.78;;;1.80;;
22024;SDS011;11176;51.448;6.650;2023-01-06T01:22:19;5.13;;;1.50;;
22024;SDS011;11176;51.448;6.650;2023-01-06T01:24:49;4.45;;;1.60;;
22024;SDS011;11176;51.448;6.650;2023-01-06T01:27:16;4.40;;;1.85;;
22024;SDS011;11176;51.448;6.650;2023-01-06T01:29:43;3.50;;;1.63;;
22024;SDS011;11176;51.448;6.650;2023-01-06T01:32:10;4.55;;;1.83;;
22024;SDS011;11176;51.448;6.650;2023-01-06T01:34:36;5.93;;;1.60;;
22024;SDS011;11176;51.448;6.650;2023-01-06T01:37:03;3.55;;;1.58;;
22024;SDS011;11176;51.448;6.650;2023-01-06T01:39:29;5.05;;;2.10;;
22024;SDS011;11176;51.448;6.650;2023-01-06T01:41:56;5.18;;;1.77;;
22024;SDS011;11176;51.448;6.650;2023-01-06T01:47:31;3.30;;;1.38;;
22024;SDS011;11176;51.448;6.650;2023-01-06T01:52:42;5.65;;;1.65;;
22024;SDS011;11176;51.448;6.650;2023-01-06T01:55:10;3.20;;;1.30;;
22024;SDS011;11176;51.448;6.650;2023-01-06T01:57:41;3.40;;;1.40;;
22024;SDS011;11176;51.448;6.650;2023-01-06T02:00:12;4.22;;;1.30;;
22024;SDS011;11176;51.448;6.650;2023-01-06T02:02:39;5.68;;;1.42;;
22024;SDS011;11176;51.448;6.650;2023-01-06T02:05:08;3.72;;;1.55;;
22024;SDS011;11176;51.448;6.650;2023-01-06T02:07:39;5.88;;;1.92;;
22024;SDS011;11176;51.448;6.650;2023-01-06T02:12:41;5.05;;;1.40;;
22024;SDS011;11176;51.448;6.650;2023-01-06T02:23:41;6.80;;;1.65;;
22024;SDS011;11176;51.448;6.650;2023-01-06T02:32:15;4.35;;;1.40;;
22024;SDS011;11176;51.448;6.650;2023-01-06T02:43:56;3.72;;;1.20;;
22024;SDS011;11176;51.448;6.650;2023-01-06T02:46:31;3.58;;;1.23;;
22024;SDS011;11176;51.448;6.650;2023-01-06T02:53:30;3.42;;;1.13;;
22024;SDS011;11176;51.448;6.650;2023-01-06T02:55:58;5.88;;;1.50;;
22024;SDS011;11176;51.448;6.650;2023-01-06T03:01:28;5.47;;;1.30;;
22024;SDS011;11176;51.448;6.650;2023-01-06T03:04:00;2.70;;;1.33;;
22024;SDS011;11176;51.448;6.650;2023-01-06T03:06:31;8.25;;;1.70;;
22024;SDS011;11176;51.448;6.650;2023-01-06T03:09:00;5.00;;;1.20;;
22024;SDS011;11176;51.448;6.650;2023-01-06T03:11:36;3.67;;;1.20;;
22024;SDS011;11176;51.448;6.650;2023-01-06T03:14:11;4.53;;;1.30;;
22024;SDS011;11176;51.448;6.650;2023-01-06T03:16:44;5.65;;;1.80;;
22024;SDS011;11176;51.448;6.650;2023-01-06T03:19:10;5.30;;;1.40;;
22024;SDS011;11176;51.448;6.650;2023-01-06T03:21:40;6.57;;;1.73;;
22024;SDS011;11176;51.448;6.650;2023-01-06T03:24:10;5.43;;;1.38;;
22024;SDS011;11176;51.448;6.650;2023-01-06T03:26:39;3.63;;;1.52;;
22024;SDS011;11176;51.448;6.650;2023-01-06T03:29:07;5.38;;;1.40;;
22024;SDS011;11176;51.448;6.650;2023-01-06T03:31:55;5.47;;;1.48;;
22024;SDS011;11176;51.448;6.650;2023-01-06T03:39:45;2.65;;;0.93;;
22024;SDS011;11176;51.448;6.650;2023-01-06T03:42:33;5.85;;;1.30;;
22024;SDS011;11176;51.448;6.650;2023-01-06T03:48:29;6.88;;;1.20;;
22024;SDS011;11176;51.448;6.650;2023-01-06T03:53:36;5.40;;;1.27;;
22024;SDS011;11176;51.448;6.650;2023-01-06T03:56:22;4.30;;;0.98;;
22024;SDS011;11176;51.448;6.650;2023-01-06T03:58:54;3.70;;;1.25;;
22024;SDS011;11176;51.448;6.650;2023-01-06T04:01:26;4.10;;;1.10;;
22024;SDS011;11176;51.448;6.650;2023-01-06T04:03:54;3.33;;;1.00;;
22024;SDS011;11176;51.448;6.650;2023-01-06T04:06:24;4.85;;;0.98;;
22024;SDS011;11176;51.448;6.650;2023-01-06T04:08:51;6.05;;;1.23;;
22024;SDS011;11176;51.448;6.650;2023-01-06T04:11:18;5.80;;;1.30;;
22024;SDS011;11176;51.448;6.650;2023-01-06T04:14:04;8.38;;;1.00;;
22024;SDS011;11176;51.448;6.650;2023-01-06T04:16:31;4.07;;;1.00;;
22024;SDS011;11176;51.448;6.650;2023-01-06T04:18:57;5.63;;;1.08;;
22024;SDS011;11176;51.448;6.650;2023-01-06T04:21:24;3.83;;;0.90;;
22024;SDS011;11176;51.448;6.650;2023-01-06T04:23:51;6.55;;;1.17;;
22024;SDS011;11176;51.448;6.650;2023-01-06T04:26:18;4.38;;;1.02;;
22024;SDS011;11176;51.448;6.650;2023-01-06T04:28:48;6.85;;;1.40;;
22024;SDS011;11176;51.448;6.650;2023-01-06T04:31:14;4.20;;;0.90;;
22024;SDS011;11176;51.448;6.650;2023-01-06T04:33:41;6.97;;;1.17;;
22024;SDS011;11176;51.448;6.650;2023-01-06T04:36:10;7.07;;;1.20;;
22024;SDS011;11176;51.448;6.650;2023-01-06T04:38:39;6.07;;;0.90;;
22024;SDS011;11176;51.448;6.650;2023-01-06T04:41:06;4.97;;;1.20;;
22024;SDS011;11176;51.448;6.650;2023-01-06T04:43:32;6.20;;;1.13;;
22024;SDS011;11176;51.448;6.650;2023-01-06T04:45:59;5.72;;;1.17;;
22024;SDS011;11176;51.448;6.650;2023-01-06T04:48:25;4.78;;;1.02;;
22024;SDS011;11176;51.448;6.650;2023-01-06T04:50:58;3.00;;;1.00;;
22024;SDS011;11176;51.448;6.650;2023-01-06T04:53:26;4.32;;;1.17;;
22024;SDS011;11176;51.448;6.650;2023-01-06T04:55:52;5.10;;;1.00;;
22024;SDS011;11176;51.448;6.650;2023-01-06T04:58:19;4.68;;;1.20;;
22024;SDS011;11176;51.448;6.650;2023-01-06T05:00:45;3.17;;;1.10;;
22024;SDS011;11176;51.448;6.650;2023-01-06T05:03:12;4.68;;;1.27;;
22024;SDS011;11176;51.448;6.650;2023-01-06T05:05:38;6.82;;;1.15;;
22024;SDS011;11176;51.448;6.650;2023-01-06T05:08:05;3.53;;;1.10;;
22024;SDS011;11176;51.448;6.650;2023-01-06T05:10:31;3.40;;;0.80;;
22024;SDS011;11176;51.448;6.650;2023-01-06T05:12:57;2.67;;;1.05;;
22024;SDS011;11176;51.448;6.650;2023-01-06T05:15:24;3.80;;;1.05;;
22024;SDS011;11176;51.448;6.650;2023-01-06T05:17:50;4.38;;;1.10;;
22024;SDS011;11176;51.448;6.650;2023-01-06T05:20:17;6.00;;;1.00;;
22024;SDS011;11176;51.448;6.650;2023-01-06T05:22:44;3.67;;;1.15;;
22024;SDS011;11176;51.448;6.650;2023-01-06T05:25:10;4.38;;;1.10;;
22024;SDS011;11176;51.448;6.650;2023-01-06T05:27:36;5.50;;;1.27;;
22024;SDS011;11176;51.448;6.650;2023-01-06T05:30:03;4.15;;;1.10;;
22024;SDS011;11176;51.448;6.650;2023-01-06T05:32:30;2.55;;;0.95;;
22024;SDS011;11176;51.448;6.650;2023-01-06T05:34:56;4.65;;;1.15;;
22024;SDS011;11176;51.448;6.650;2023-01-06T05:37:23;3.40;;;1.02;;
22024;SDS011;11176;51.448;6.650;2023-01-06T05:39:49;2.05;;;0.88;;
22024;SDS011;11176;51.448;6.650;2023-01-06T05:42:15;5.32;;;1.10;;
22024;SDS011;11176;51.448;6.650;2023-01-06T05:44:42;4.32;;;0.82;;
22024;SDS011;11176;51.448;6.650;2023-01-06T05:47:09;3.20;;;0.90;;
22024;SDS011;11176;51.448;6.650;2023-01-06T05:49:35;3.80;;;1.02;;
22024;SDS011;11176;51.448;6.650;2023-01-06T05:52:02;3.90;;;1.10;;
22024;SDS011;11176;51.448;6.650;2023-01-06T05:54:28;6.25;;;1.13;;
22024;SDS011;11176;51.448;6.650;2023-01-06T05:56:55;3.50;;;1.05;;
22024;SDS011;11176;51.448;6.650;2023-01-06T05:59:21;3.65;;;1.02;;
22024;SDS011;11176;51.448;6.650;2023-01-06T06:01:48;5.82;;;1.38;;
22024;SDS011;11176;51.448;6.650;2023-01-06T06:04:15;5.63;;;1.40;;
22024;SDS011;11176;51.448;6.650;2023-01-06T06:06:41;4.05;;;1.20;;
22024;SDS011;11176;51.448;6.650;2023-01-06T06:09:08;3.58;;;1.15;;
22024;SDS011;11176;51.448;6.650;2023-01-06T06:11:34;4.47;;;1.38;;
22024;SDS011;11176;51.448;6.650;2023-01-06T06:14:01;3.70;;;1.08;;
22024;SDS011;11176;51.448;6.650;2023-01-06T06:16:27;2.63;;;0.90;;
22024;SDS011;11176;51.448;6.650;2023-01-06T06:18:55;3.75;;;1.20;;
22024;SDS011;11176;51.448;6.650;2023-01-06T06:21:23;7.63;;;1.52;;
22024;SDS011;11176;51.448;6.650;2023-01-06T06:23:52;2.42;;;1.13;;
22024;SDS011;11176;51.448;6.650;2023-01-06T06:26:19;2.40;;;1.15;;
22024;SDS011;11176;51.448;6.650;2023-01-06T06:28:46;3.28;;;1.00;;
22024;SDS011;11176;51.448;6.650;2023-01-06T06:31:14;5.32;;;1.30;;
22024;SDS011;11176;51.448;6.650;2023-01-06T06:33:41;2.65;;;1.10;;
22024;SDS011;11176;51.448;6.650;2023-01-06T06:36:07;3.00;;;1.00;;
22024;SDS011;11176;51.448;6.650;2023-01-06T06:41:08;3.05;;;0.90;;
22024;SDS011;11176;51.448;6.650;2023-01-06T06:43:34;4.05;;;1.15;;
22024;SDS011;11176;51.448;6.650;2023-01-06T06:46:01;2.95;;;1.08;;
22024;SDS011;11176;51.448;6.650;2023-01-06T06:48:28;2.22;;;1.00;;
22024;SDS011;11176;51.448;6.650;2023-01-06T06:50:55;4.70;;;1.10;;
22024;SDS011;11176;51.448;6.650;2023-01-06T06:53:32;2.15;;;0.80;;
22024;SDS011;11176;51.448;6.650;2023-01-06T06:56:00;2.47;;;0.90;;
22024;SDS011;11176;51.448;6.650;2023-01-06T06:58:27;2.35;;;0.90;;
22024;SDS011;11176;51.448;6.650;2023-01-06T07:00:54;4.75;;;0.90;;
22024;SDS011;11176;51.448;6.650;2023-01-06T07:03:21;4.53;;;1.10;;
22024;SDS011;11176;51.448;6.650;2023-01-06T07:05:48;5.15;;;1.00;;
22024;SDS011;11176;51.448;6.650;2023-01-06T07:08:16;1.83;;;1.08;;
22024;SDS011;11176;51.448;6.650;2023-01-06T07:10:43;4.30;;;0.80;;
22024;SDS011;11176;51.448;6.650;2023-01-06T07:13:10;1.80;;;0.75;;
22024;SDS011;11176;51.448;6.650;2023-01-06T07:15:37;2.38;;;0.90;;
22024;SDS011;11176;51.448;6.650;2023-01-06T07:18:04;4.15;;;1.00;;
22024;SDS011;11176;51.448;6.650;2023-01-06T07:20:32;3.47;;;0.80;;
22024;SDS011;11176;51.448;6.650;2023-01-06T07:22:59;4.45;;;0.98;;
22024;SDS011;11176;51.448;6.650;2023-01-06T07:25:26;4.40;;;0.88;;
22024;SDS011;11176;51.448;6.650;2023-01-06T07:27:53;2.97;;;0.85;;
22024;SDS011;11176;51.448;6.650;2023-01-06T07:30:21;2.28;;;0.85;;
22024;SDS011;11176;51.448;6.650;2023-01-06T07:32:48;1.42;;;0.70;;
22024;SDS011;11176;51.448;6.650;2023-01-06T07:35:15;2.53;;;0.80;;
22024;SDS011;11176;51.448;6.650;2023-01-06T07:37:42;1.67;;;0.70;;
22024;SDS011;11176;51.448;6.650;2023-01-06T07:40:09;2.50;;;0.80;;
22024;SDS011;11176;51.448;6.650;2023-01-06T07:42:37;3.28;;;0.80;;
22024;SDS011;11176;51.448;6.650;2023-01-06T07:45:03;2.25;;;0.90;;
22024;SDS011;11176;51.448;6.650;2023-01-06T07:47:32;2.63;;;0.70;;
22024;SDS011;11176;51.448;6.650;2023-01-06T07:49:59;1.38;;;0.60;;
22024;SDS011;11176;51.448;6.650;2023-01-06T07:52:25;2.38;;;0.95;;
22024;SDS011;11176;51.448;6.650;2023-01-06T07:54:52;2.88;;;1.20;;
22024;SDS011;11176;51.448;6.650;2023-01-06T07:57:18;3.30;;;1.52;;
22024;SDS011;11176;51.448;6.650;2023-01-06T07:59:45;3.30;;;1.10;;
22024;SDS011;11176;51.448;6.650;2023-01-06T08:02:11;2.58;;;0.90;;
22024;SDS011;11176;51.448;6.650;2023-01-06T08:04:38;2.38;;;1.08;;
22024;SDS011;11176;51.448;6.650;2023-01-06T08:07:04;2.13;;;0.82;;
22024;SDS011;11176;51.448;6.650;2023-01-06T08:09:31;3.17;;;0.95;;
22024;SDS011;11176;51.448;6.650;2023-01-06T08:11:57;2.78;;;1.05;;
22024;SDS011;11176;51.448;6.650;2023-01-06T08:14:24;2.80;;;1.00;;
22024;SDS011;11176;51.448;6.650;2023-01-06T08:16:51;3.22;;;0.93;;
22024;SDS011;11176;51.448;6.650;2023-01-06T08:19:17;1.58;;;0.85;;
22024;SDS011;11176;51.448;6.650;2023-01-06T08:21:44;1.77;;;0.70;;
22024;SDS011;11176;51.448;6.650;2023-01-06T08:24:10;2.83;;;1.02;;
22024;SDS011;11176;51.448;6.650;2023-01-06T08:26:37;2.83;;;1.02;;
22024;SDS011;11176;51.448;6.650;2023-01-06T08:29:03;1.95;;;0.82;;
22024;SDS011;11176;51.448;6.650;2023-01-06T08:31:30;2.10;;;0.80;;
22024;SDS011;11176;51.448;6.650;2023-01-06T08:33:57;2.75;;;1.10;;
22024;SDS011;11176;51.448;6.650;2023-01-06T08:36:23;2.38;;;0.85;;
22024;SDS011;11176;51.448;6.650;2023-01-06T08:38:51;3.55;;;1.00;;
22024;SDS011;11176;51.448;6.650;2023-01-06T08:41:18;1.65;;;0.90;;
22024;SDS011;11176;51.448;6.650;2023-01-06T08:43:45;1.80;;;0.90;;
22024;SDS011;11176;51.448;6.650;2023-01-06T08:46:13;1.55;;;0.90;;
22024;SDS011;11176;51.448;6.650;2023-01-06T08:48:44;3.78;;;1.10;;
22024;SDS011;11176;51.448;6.650;2023-01-06T08:51:13;2.47;;;0.90;;
22024;SDS011;11176;51.448;6.650;2023-01-06T08:53:42;1.73;;;0.95;;
22024;SDS011;11176;51.448;6.650;2023-01-06T08:56:13;3.85;;;0.90;;
22024;SDS011;11176;51.448;6.650;2023-01-06T08:58:41;2.15;;;0.90;;
22024;SDS011;11176;51.448;6.650;2023-01-06T09:01:14;2.35;;;0.85;;
22024;SDS011;11176;51.448;6.650;2023-01-06T09:03:44;2.08;;;0.75;;
22024;SDS011;11176;51.448;6.650;2023-01-06T09:06:11;3.22;;;0.95;;
22024;SDS011;11176;51.448;6.650;2023-01-06T09:08:38;2.90;;;0.90;;
22024;SDS011;11176;51.448;6.650;2023-01-06T09:11:05;3.25;;;1.05;;
22024;SDS011;11176;51.448;6.650;2023-01-06T09:13:33;1.88;;;0.80;;
22024;SDS011;11176;51.448;6.650;2023-01-06T09:16:03;4.03;;;1.08;;
22024;SDS011;11176;51.448;6.650;2023-01-06T09:18:30;2.65;;;1.00;;
22024;SDS011;11176;51.448;6.650;2023-01-06T09:20:57;4.25;;;0.95;;
22024;SDS011;11176;51.448;6.650;2023-01-06T09:23:23;2.20;;;1.05;;
22024;SDS011;11176;51.448;6.650;2023-01-06T09:25:50;3.80;;;1.15;;
22024;SDS011;11176;51.448;6.650;2023-01-06T09:28:16;1.48;;;0.70;;
22024;SDS011;11176;51.448;6.650;2023-01-06T09:30:44;2.45;;;0.80;;
22024;SDS011;11176;51.448;6.650;2023-01-06T09:33:12;4.10;;;1.30;;
22024;SDS011;11176;51.448;6.650;2023-01-06T09:35:38;2.28;;;1.00;;
22024;SDS011;11176;51.448;6.650;2023-01-06T09:38:04;4.32;;;1.20;;
22024;SDS011;11176;51.448;6.650;2023-01-06T09:40:36;2.05;;;1.02;;
22024;SDS011;11176;51.448;6.650;2023-01-06T09:43:19;2.75;;;1.45;;
22024;SDS011;11176;51.448;6.650;2023-01-06T09:45:51;2.55;;;1.20;;
22024;SDS011;11176;51.448;6.650;2023-01-06T09:48:20;3.40;;;1.02;;
22024;SDS011;11176;51.448;6.650;2023-01-06T09:50:55;2.60;;;1.13;;
22024;SDS011;11176;51.448;6.650;2023-01-06T09:53:27;2.60;;;1.30;;
22024;SDS011;11176;51.448;6.650;2023-01-06T09:55:59;2.38;;;1.42;;
22024;SDS011;11176;51.448;6.650;2023-01-06T09:58:36;2.35;;;1.20;;
22024;SDS011;11176;51.448;6.650;2023-01-06T10:01:12;1.85;;;1.05;;
22024;SDS011;11176;51.448;6.650;2023-01-06T10:03:42;1.92;;;1.50;;
22024;SDS011;11176;51.448;6.650;2023-01-06T10:06:32;4.55;;;1.50;;
22024;SDS011;11176;51.448;6.650;2023-01-06T10:09:13;1.90;;;1.40;;
22024;SDS011;11176;51.448;6.650;2023-01-06T10:20:40;2.10;;;1.33;;
22024;SDS011;11176;51.448;6.650;2023-01-06T10:26:12;2.20;;;1.52;;
22024;SDS011;11176;51.448;6.650;2023-01-06T10:28:45;2.53;;;1.40;;
22024;SDS011;11176;51.448;6.650;2023-01-06T10:31:20;4.13;;;1.30;;
22024;SDS011;11176;51.448;6.650;2023-01-06T10:33:51;4.00;;;2.50;;
22024;SDS011;11176;51.448;6.650;2023-01-06T10:36:21;8.30;;;6.38;;
22024;SDS011;11176;51.448;6.650;2023-01-06T10:38:55;3.42;;;2.42;;
22024;SDS011;11176;51.448;6.650;2023-01-06T10:41:27;3.42;;;2.10;;
22024;SDS011;11176;51.448;6.650;2023-01-06T10:43:57;3.30;;;2.10;;
22024;SDS011;11176;51.448;6.650;2023-01-06T10:46:25;5.03;;;3.00;;
22024;SDS011;11176;51.448;6.650;2023-01-06T10:49:06;9.13;;;5.65;;
22024;SDS011;11176;51.448;6.650;2023-01-06T10:51:40;6.45;;;3.78;;
22024;SDS011;11176;51.448;6.650;2023-01-06T10:54:21;10.63;;;6.53;;
22024;SDS011;11176;51.448;6.650;2023-01-06T10:56:54;6.90;;;3.90;;
22024;SDS011;11176;51.448;6.650;2023-01-06T10:59:31;7.65;;;4.07;;
22024;SDS011;11176;51.448;6.650;2023-01-06T11:01:58;8.43;;;4.53;;
22024;SDS011;11176;51.448;6.650;2023-01-06T11:04:25;5.22;;;1.90;;
22024;SDS011;11176;51.448;6.650;2023-01-06T11:06:53;6.97;;;2.60;;
22024;SDS011;11176;51.448;6.650;2023-01-06T11:12:10;14.75;;;6.72;;
22024;SDS011;11176;51.448;6.650;2023-01-06T11:14:41;22.05;;;7.45;;
22024;SDS011;11176;51.448;6.650;2023-01-06T11:17:08;2.92;;;1.17;;
22024;SDS011;11176;51.448;6.650;2023-01-06T11:19:43;7.05;;;1.83;;
22024;SDS011;11176;51.448;6.650;2023-01-06T11:25:02;8.70;;;4.47;;
22024;SDS011;11176;51.448;6.650;2023-01-06T11:27:41;5.85;;;2.97;;
22024;SDS011;11176;51.448;6.650;2023-01-06T11:30:26;2.97;;;1.80;;
22024;SDS011;11176;51.448;6.650;2023-01-06T11:32:53;3.00;;;1.40;;
22024;SDS011;11176;51.448;6.650;2023-01-06T11:35:21;3.33;;;1.70;;
22024;SDS011;11176;51.448;6.650;2023-01-06T11:37:57;5.80;;;2.47;;
22024;SDS011;11176;51.448;6.650;2023-01-06T11:40:31;5.28;;;3.28;;
22024;SDS011;11176;51.448;6.650;2023-01-06T11:43:01;5.32;;;3.35;;
22024;SDS011;11176;51.448;6.650;2023-01-06T11:45:33;2.38;;;1.42;;
22024;SDS011;11176;51.448;6.650;2023-01-06T11:48:01;2.03;;;1.13;;
22024;SDS011;11176;51.448;6.650;2023-01-06T11:50:32;3.67;;;1.48;;
22024;SDS011;11176;51.448;6.650;2023-01-06T11:53:03;3.03;;;1.45;;
22024;SDS011;11176;51.448;6.650;2023-01-06T11:55:40;2.63;;;1.30;;
22024;SDS011;11176;51.448;6.650;2023-01-06T11:58:11;2.90;;;1.30;;
22024;SDS011;11176;51.448;6.650;2023-01-06T12:00:48;3.92;;;1.23;;
22024;SDS011;11176;51.448;6.650;2023-01-06T12:05:46;4.97;;;1.40;;
22024;SDS011;11176;51.448;6.650;2023-01-06T12:08:20;2.22;;;1.40;;
22024;SDS011;11176;51.448;6.650;2023-01-06T12:10:52;3.72;;;1.17;;
22024;SDS011;11176;51.448;6.650;2023-01-06T12:13:25;4.38;;;1.20;;
22024;SDS011;11176;51.448;6.650;2023-01-06T12:15:57;3.60;;;1.10;;
22024;SDS011;11176;51.448;6.650;2023-01-06T12:18:29;1.90;;;1.08;;
22024;SDS011;11176;51.448;6.650;2023-01-06T12:21:00;1.42;;;0.88;;
22024;SDS011;11176;51.448;6.650;2023-01-06T12:23:33;1.55;;;0.85;;
22024;SDS011;11176;51.448;6.650;2023-01-06T12:28:35;4.22;;;1.05;;
22024;SDS011;11176;51.448;6.650;2023-01-06T12:31:06;3.38;;;1.48;;
22024;SDS011;11176;51.448;6.650;2023-01-06T12:33:46;4.95;;;2.15;;
22024;SDS011;11176;51.448;6.650;2023-01-06T12:39:04;3.72;;;2.05;;
22024;SDS011;11176;51.448;6.650;2023-01-06T12:41:47;3.13;;;1.10;;
22024;SDS011;11176;51.448;6.650;2023-01-06T12:46:54;2.13;;;0.70;;
22024;SDS011;11176;51.448;6.650;2023-01-06T12:49:40;2.10;;;0.70;;
22024;SDS011;11176;51.448;6.650;2023-01-06T12:52:14;3.03;;;1.00;;
22024;SDS011;11176;51.448;6.650;2023-01-06T12:54:49;2.42;;;0.70;;
22024;SDS011;11176;51.448;6.650;2023-01-06T12:57:21;3.40;;;0.80;;
22024;SDS011;11176;51.448;6.650;2023-01-06T13:00:13;2.35;;;0.90;;
22024;SDS011;11176;51.448;6.650;2023-01-06T13:12:10;1.30;;;0.75;;
22024;SDS011;11176;51.448;6.650;2023-01-06T13:14:54;6.63;;;1.05;;
22024;SDS011;11176;51.448;6.650;2023-01-06T13:17:35;1.65;;;0.80;;
22024;SDS011;11176;51.448;6.650;2023-01-06T13:20:17;4.70;;;1.40;;
22024;SDS011;11176;51.448;6.650;2023-01-06T13:25:52;2.35;;;0.98;;
22024;SDS011;11176;51.448;6.650;2023-01-06T13:39:43;3.88;;;0.98;;
22024;SDS011;11176;51.448;6.650;2023-01-06T13:42:14;3.78;;;1.20;;
22024;SDS011;11176;51.448;6.650;2023-01-06T13:44:42;1.02;;;0.60;;
22024;SDS011;11176;51.448;6.650;2023-01-06T13:47:11;1.95;;;1.00;;
22024;SDS011;11176;51.448;6.650;2023-01-06T13:49:44;3.15;;;1.15;;
22024;SDS011;11176;51.448;6.650;2023-01-06T13:52:14;2.10;;;1.10;;
22024;SDS011;11176;51.448;6.650;2023-01-06T13:57:23;2.42;;;1.13;;
22024;SDS011;11176;51.448;6.650;2023-01-06T14:00:17;3.97;;;1.27;;
22024;SDS011;11176;51.448;6.650;2023-01-06T14:07:55;1.77;;;1.10;;
22024;SDS011;11176;51.448;6.650;2023-01-06T14:13:03;2.78;;;1.30;;
22024;SDS011;11176;51.448;6.650;2023-01-06T14:15:50;5.00;;;2.88;;
22024;SDS011;11176;51.448;6.650;2023-01-06T14:18:35;6.93;;;3.85;;
22024;SDS011;11176;51.448;6.650;2023-01-06T14:37:22;10.95;;;4.88;;
22024;SDS011;11176;51.448;6.650;2023-01-06T14:39:52;6.63;;;3.03;;
22024;SDS011;11176;51.448;6.650;2023-01-06T14:42:22;9.18;;;3.97;;
22024;SDS011;11176;51.448;6.650;2023-01-06T14:44:56;15.52;;;7.55;;
22024;SDS011;11176;51.448;6.650;2023-01-06T14:47:29;6.35;;;3.03;;
22024;SDS011;11176;51.448;6.650;2023-01-06T14:50:06;22.02;;;10.25;;
22024;SDS011;11176;51.448;6.650;2023-01-06T14:52:40;10.68;;;5.28;;
22024;SDS011;11176;51.448;6.650;2023-01-06T14:55:14;11.75;;;6.47;;
22024;SDS011;11176;51.448;6.650;2023-01-06T14:57:43;10.25;;;5.47;;
22024;SDS011;11176;51.448;6.650;2023-01-06T15:00:16;10.45;;;5.30;;
22024;SDS011;11176;51.448;6.650;2023-01-06T15:02:44;11.77;;;6.45;;
22024;SDS011;11176;51.448;6.650;2023-01-06T15:10:29;7.30;;;3.75;;
22024;SDS011;11176;51.448;6.650;2023-01-06T15:12:59;5.53;;;3.72;;
22024;SDS011;11176;51.448;6.650;2023-01-06T15:15:28;8.73;;;5.93;;
22024;SDS011;11176;51.448;6.650;2023-01-06T15:17:57;7.28;;;4.57;;
22024;SDS011;11176;51.448;6.650;2023-01-06T15:20:27;7.32;;;4.22;;
22024;SDS011;11176;51.448;6.650;2023-01-06T15:22:57;5.72;;;3.50;;
22024;SDS011;11176;51.448;6.650;2023-01-06T15:25:26;6.65;;;4.07;;
22024;SDS011;11176;51.448;6.650;2023-01-06T15:27:53;8.48;;;4.05;;
22024;SDS011;11176;51.448;6.650;2023-01-06T15:30:23;8.93;;;4.40;;
22024;SDS011;11176;51.448;6.650;2023-01-06T15:32:52;6.20;;;3.75;;
22024;SDS011;11176;51.448;6.650;2023-01-06T15:35:29;6.20;;;3.17;;
22024;SDS011;11176;51.448;6.650;2023-01-06T15:37:59;5.82;;;3.30;;
22024;SDS011;11176;51.448;6.650;2023-01-06T15:40:49;5.25;;;3.72;;
22024;SDS011;11176;51.448;6.650;2023-01-06T15:43:17;6.53;;;4.22;;
22024;SDS011;11176;51.448;6.650;2023-01-06T15:46:03;13.68;;;8.25;;
22024;SDS011;11176;51.448;6.650;2023-01-06T15:48:33;14.95;;;8.70;;
22024;SDS011;11176;51.448;6.650;2023-01-06T15:51:10;10.70;;;6.68;;
22024;SDS011;11176;51.448;6.650;2023-01-06T15:53:37;9.60;;;6.03;;
22024;SDS011;11176;51.448;6.650;2023-01-06T15:56:04;9.65;;;6.22;;
22024;SDS011;11176;51.448;6.650;2023-01-06T15:58:34;6.65;;;4.57;;
22024;SDS011;11176;51.448;6.650;2023-01-06T16:01:13;5.10;;;3.40;;
22024;SDS011;11176;51.448;6.650;2023-01-06T16:03:46;4.07;;;2.90;;
22024;SDS011;11176;51.448;6.650;2023-01-06T16:06:27;4.68;;;2.67;;
22024;SDS011;11176;51.448;6.650;2023-01-06T16:12:17;6.63;;;4.45;;
22024;SDS011;11176;51.448;6.650;2023-01-06T16:14:44;5.80;;;3.28;;
22024;SDS011;11176;51.448;6.650;2023-01-06T16:19:51;4.00;;;2.65;;
22024;SDS011;11176;51.448;6.650;2023-01-06T16:22:30;4.28;;;3.45;;
22024;SDS011;11176;51.448;6.650;2023-01-06T16:25:00;4.70;;;3.50;;
22024;SDS011;11176;51.448;6.650;2023-01-06T16:27:28;4.43;;;3.20;;
22024;SDS011;11176;51.448;6.650;2023-01-06T16:32:40;5.15;;;3.75;;
22024;SDS011;11176;51.448;6.650;2023-01-06T16:35:12;6.18;;;3.10;;
22024;SDS011;11176;51.448;6.650;2023-01-06T16:37:41;4.60;;;3.28;;
22024;SDS011;11176;51.448;6.650;2023-01-06T16:40:08;5.85;;;3.50;;
22024;SDS011;11176;51.448;6.650;2023-01-06T16:42:36;4.70;;;3.55;;
22024;SDS011;11176;51.448;6.650;2023-01-06T16:47:52;5.50;;;3.25;;
22024;SDS011;11176;51.448;6.650;2023-01-06T16:50:20;4.10;;;3.10;;
22024;SDS011;11176;51.448;6.650;2023-01-06T16:53:01;4.95;;;4.03;;
22024;SDS011;11176;51.448;6.650;2023-01-06T16:55:36;4.25;;;3.58;;
22024;SDS011;11176;51.448;6.650;2023-01-06T16:58:05;5.78;;;4.05;;
22024;SDS011;11176;51.448;6.650;2023-01-06T17:00:40;5.22;;;3.58;;
22024;SDS011;11176;51.448;6.650;2023-01-06T17:03:10;7.13;;;4.82;;
22024;SDS011;11176;51.448;6.650;2023-01-06T17:05:39;3.60;;;3.03;;
22024;SDS011;11176;51.448;6.650;2023-01-06T17:08:08;5.30;;;3.55;;
22024;SDS011;11176;51.448;6.650;2023-01-06T17:10:38;5.88;;;4.68;;
22024;SDS011;11176;51.448;6.650;2023-01-06T17:13:04;6.90;;;4.25;;
22024;SDS011;11176;51.448;6.650;2023-01-06T17:15:50;5.00;;;3.90;;
22024;SDS011;11176;51.448;6.650;2023-01-06T17:18:21;5.20;;;3.85;;
22024;SDS011;11176;51.448;6.650;2023-01-06T17:21:09;4.15;;;3.38;;
22024;SDS011;11176;51.448;6.650;2023-01-06T17:26:12;4.25;;;3.05;;
22024;SDS011;11176;51.448;6.650;2023-01-06T17:28:41;5.03;;;3.38;;
22024;SDS011;11176;51.448;6.650;2023-01-06T17:31:15;7.45;;;4.65;;
22024;SDS011;11176;51.448;6.650;2023-01-06T17:33:46;5.68;;;3.80;;
22024;SDS011;11176;51.448;6.650;2023-01-06T17:36:17;6.10;;;4.15;;
22024;SDS011;11176;51.448;6.650;2023-01-06T17:38:48;3.97;;;3.00;;